sensor_id;sensor_type;location;lat;lon;timestamp;P1;durP1;ratioP1;P2;durP2;ratioP2
27491;SDS011;14927;51.210;6.838;2022-07-03T00:02:21;2.35;;;1.58;;
27491;SDS011;14927;51.210;6.838;2022-07-03T00:05:05;3.15;;;1.83;;
27491;SDS011;14927;51.210;6.838;2022-07-03T00:07:50;3.75;;;2.25;;
27491;SDS011;14927;51.210;6.838;2022-07-03T00:10:35;4.03;;;1.80;;
27491;SDS011;14927;51.210;6.838;2022-07-03T00:13:19;5.10;;;1.50;;
27491;SDS011;14927;51.210;6.838;2022-07-03T00:16:04;2.10;;;1.15;;
27491;SDS011;14927;51.210;6.838;2022-07-03T00:18:49;4.10;;;1.15;;
27491;SDS011;14927;51.210;6.838;2022-07-03T00:21:34;2.75;;;1.10;;
27491;SDS011;14927;51.210;6.838;2022-07-03T00:24:42;1.65;;;0.93;;
27491;SDS011;14927;51.210;6.838;2022-07-03T00:27:48;4.10;;;1.05;;
27491;SDS011;14927;51.210;6.838;2022-07-03T00:30:34;1.92;;;0.90;;
27491;SDS011;14927;51.210;6.838;2022-07-03T00:33:19;1.63;;;1.10;;
27491;SDS011;14927;51.210;6.838;2022-07-03T00:36:04;3.05;;;1.40;;
27491;SDS011;14927;51.210;6.838;2022-07-03T00:38:50;2.95;;;1.27;;
27491;SDS011;14927;51.210;6.838;2022-07-03T00:41:35;3.15;;;1.70;;
27491;SDS011;14927;51.210;6.838;2022-07-03T00:44:20;1.85;;;1.20;;
27491;SDS011;14927;51.210;6.838;2022-07-03T00:47:05;6.82;;;1.67;;
27491;SDS011;14927;51.210;6.838;2022-07-03T00:49:53;2.97;;;1.77;;
27491;SDS011;14927;51.210;6.838;2022-07-03T00:52:47;3.53;;;2.00;;
27491;SDS011;14927;51.210;6.838;2022-07-03T00:55:34;6.35;;;2.58;;
27491;SDS011;14927;51.210;6.838;2022-07-03T00:58:20;3.03;;;1.92;;
27491;SDS011;14927;51.210;6.838;2022-07-03T01:01:05;4.00;;;1.77;;
27491;SDS011;14927;51.210;6.838;2022-07-03T01:03:53;5.63;;;1.65;;
27491;SDS011;14927;51.210;6.838;2022-07-03T01:06:58;5.97;;;1.75;;
27491;SDS011;14927;51.210;6.838;2022-07-03T01:12:57;3.95;;;2.08;;
27491;SDS011;14927;51.210;6.838;2022-07-03T01:18:59;3.13;;;1.63;;
27491;SDS011;14927;51.210;6.838;2022-07-03T01:25:26;3.50;;;1.58;;
27491;SDS011;14927;51.210;6.838;2022-07-03T01:28:29;3.55;;;1.67;;
27491;SDS011;14927;51.210;6.838;2022-07-03T01:31:19;4.13;;;1.42;;
27491;SDS011;14927;51.210;6.838;2022-07-03T01:34:07;4.45;;;1.27;;
27491;SDS011;14927;51.210;6.838;2022-07-03T01:37:00;3.25;;;1.38;;
27491;SDS011;14927;51.210;6.838;2022-07-03T01:39:46;2.00;;;1.15;;
27491;SDS011;14927;51.210;6.838;2022-07-03T01:42:36;4.00;;;1.00;;
27491;SDS011;14927;51.210;6.838;2022-07-03T01:45:22;2.60;;;1.17;;
27491;SDS011;14927;51.210;6.838;2022-07-03T01:48:12;2.05;;;1.20;;
27491;SDS011;14927;51.210;6.838;2022-07-03T01:50:58;1.80;;;1.13;;
27491;SDS011;14927;51.210;6.838;2022-07-03T01:53:44;1.83;;;1.17;;
27491;SDS011;14927;51.210;6.838;2022-07-03T02:00:06;4.88;;;1.35;;
27491;SDS011;14927;51.210;6.838;2022-07-03T02:02:55;2.97;;;1.80;;
27491;SDS011;14927;51.210;6.838;2022-07-03T02:05:47;3.20;;;1.30;;
27491;SDS011;14927;51.210;6.838;2022-07-03T02:11:35;4.32;;;1.83;;
27491;SDS011;14927;51.210;6.838;2022-07-03T02:14:29;3.42;;;1.65;;
27491;SDS011;14927;51.210;6.838;2022-07-03T02:17:17;8.50;;;2.08;;
27491;SDS011;14927;51.210;6.838;2022-07-03T02:20:06;1.77;;;1.27;;
27491;SDS011;14927;51.210;6.838;2022-07-03T02:22:56;4.22;;;1.50;;
27491;SDS011;14927;51.210;6.838;2022-07-03T02:25:44;5.07;;;1.30;;
27491;SDS011;14927;51.210;6.838;2022-07-03T02:31:21;3.13;;;1.60;;
27491;SDS011;14927;51.210;6.838;2022-07-03T02:34:09;2.83;;;1.60;;
27491;SDS011;14927;51.210;6.838;2022-07-03T02:37:19;2.70;;;1.67;;
27491;SDS011;14927;51.210;6.838;2022-07-03T02:46:27;2.67;;;1.48;;
27491;SDS011;14927;51.210;6.838;2022-07-03T02:49:42;2.65;;;1.55;;
27491;SDS011;14927;51.210;6.838;2022-07-03T03:01:47;3.03;;;1.50;;
27491;SDS011;14927;51.210;6.838;2022-07-03T03:04:41;2.08;;;1.50;;
27491;SDS011;14927;51.210;6.838;2022-07-03T03:10:47;3.55;;;1.65;;
27491;SDS011;14927;51.210;6.838;2022-07-03T03:13:32;2.05;;;1.35;;
27491;SDS011;14927;51.210;6.838;2022-07-03T03:16:17;2.78;;;1.52;;
27491;SDS011;14927;51.210;6.838;2022-07-03T03:19:02;1.40;;;1.30;;
27491;SDS011;14927;51.210;6.838;2022-07-03T03:22:06;1.70;;;1.20;;
27491;SDS011;14927;51.210;6.838;2022-07-03T03:25:11;2.28;;;1.45;;
27491;SDS011;14927;51.210;6.838;2022-07-03T03:27:56;2.58;;;1.45;;
27491;SDS011;14927;51.210;6.838;2022-07-03T03:30:43;5.82;;;1.67;;
27491;SDS011;14927;51.210;6.838;2022-07-03T03:33:27;2.92;;;1.02;;
27491;SDS011;14927;51.210;6.838;2022-07-03T03:36:13;1.80;;;1.05;;
27491;SDS011;14927;51.210;6.838;2022-07-03T03:39:00;3.80;;;1.30;;
27491;SDS011;14927;51.210;6.838;2022-07-03T03:41:45;2.55;;;1.20;;
27491;SDS011;14927;51.210;6.838;2022-07-03T03:44:29;2.00;;;1.10;;
27491;SDS011;14927;51.210;6.838;2022-07-03T03:47:14;1.88;;;1.10;;
27491;SDS011;14927;51.210;6.838;2022-07-03T03:49:59;3.83;;;1.20;;
27491;SDS011;14927;51.210;6.838;2022-07-03T03:52:44;1.77;;;1.20;;
27491;SDS011;14927;51.210;6.838;2022-07-03T03:55:29;2.55;;;1.45;;
27491;SDS011;14927;51.210;6.838;2022-07-03T03:58:14;6.03;;;1.20;;
27491;SDS011;14927;51.210;6.838;2022-07-03T04:01:01;2.45;;;1.40;;
27491;SDS011;14927;51.210;6.838;2022-07-03T04:03:47;1.85;;;1.17;;
27491;SDS011;14927;51.210;6.838;2022-07-03T04:06:31;2.38;;;1.42;;
27491;SDS011;14927;51.210;6.838;2022-07-03T04:09:16;2.28;;;1.25;;
27491;SDS011;14927;51.210;6.838;2022-07-03T04:12:01;2.88;;;1.08;;
27491;SDS011;14927;51.210;6.838;2022-07-03T04:14:46;4.55;;;1.95;;
27491;SDS011;14927;51.210;6.838;2022-07-03T04:17:31;3.63;;;1.40;;
27491;SDS011;14927;51.210;6.838;2022-07-03T04:20:16;2.25;;;1.15;;
27491;SDS011;14927;51.210;6.838;2022-07-03T04:23:00;2.75;;;1.40;;
27491;SDS011;14927;51.210;6.838;2022-07-03T04:25:45;2.38;;;1.13;;
27491;SDS011;14927;51.210;6.838;2022-07-03T04:28:30;2.38;;;1.40;;
27491;SDS011;14927;51.210;6.838;2022-07-03T04:31:14;2.20;;;1.27;;
27491;SDS011;14927;51.210;6.838;2022-07-03T04:33:59;1.85;;;1.30;;
27491;SDS011;14927;51.210;6.838;2022-07-03T04:36:43;7.72;;;1.90;;
27491;SDS011;14927;51.210;6.838;2022-07-03T04:39:28;4.50;;;1.77;;
27491;SDS011;14927;51.210;6.838;2022-07-03T04:42:13;2.80;;;1.42;;
27491;SDS011;14927;51.210;6.838;2022-07-03T04:44:57;5.25;;;1.73;;
27491;SDS011;14927;51.210;6.838;2022-07-03T04:47:42;7.05;;;1.60;;
27491;SDS011;14927;51.210;6.838;2022-07-03T04:50:26;3.80;;;1.63;;
27491;SDS011;14927;51.210;6.838;2022-07-03T04:53:12;3.90;;;1.60;;
27491;SDS011;14927;51.210;6.838;2022-07-03T04:55:57;4.75;;;1.58;;
27491;SDS011;14927;51.210;6.838;2022-07-03T04:58:42;5.25;;;1.58;;
27491;SDS011;14927;51.210;6.838;2022-07-03T05:01:26;2.95;;;1.60;;
27491;SDS011;14927;51.210;6.838;2022-07-03T05:04:11;3.55;;;1.65;;
27491;SDS011;14927;51.210;6.838;2022-07-03T05:06:56;3.30;;;1.63;;
27491;SDS011;14927;51.210;6.838;2022-07-03T05:09:40;7.85;;;2.35;;
27491;SDS011;14927;51.210;6.838;2022-07-03T05:12:25;4.68;;;1.77;;
27491;SDS011;14927;51.210;6.838;2022-07-03T05:15:10;3.85;;;1.63;;
27491;SDS011;14927;51.210;6.838;2022-07-03T05:17:54;7.60;;;1.80;;
27491;SDS011;14927;51.210;6.838;2022-07-03T05:20:39;2.15;;;1.63;;
27491;SDS011;14927;51.210;6.838;2022-07-03T05:23:26;2.70;;;1.60;;
27491;SDS011;14927;51.210;6.838;2022-07-03T05:26:10;3.97;;;1.70;;
27491;SDS011;14927;51.210;6.838;2022-07-03T05:28:55;4.80;;;2.17;;
27491;SDS011;14927;51.210;6.838;2022-07-03T05:31:40;3.85;;;1.70;;
27491;SDS011;14927;51.210;6.838;2022-07-03T05:34:24;2.15;;;1.70;;
27491;SDS011;14927;51.210;6.838;2022-07-03T05:37:09;7.93;;;2.13;;
27491;SDS011;14927;51.210;6.838;2022-07-03T05:39:53;2.85;;;1.80;;
27491;SDS011;14927;51.210;6.838;2022-07-03T05:42:38;5.68;;;1.83;;
27491;SDS011;14927;51.210;6.838;2022-07-03T05:45:22;5.30;;;1.90;;
27491;SDS011;14927;51.210;6.838;2022-07-03T05:48:07;6.47;;;2.05;;
27491;SDS011;14927;51.210;6.838;2022-07-03T05:50:53;3.08;;;1.42;;
27491;SDS011;14927;51.210;6.838;2022-07-03T05:53:37;2.83;;;2.10;;
27491;SDS011;14927;51.210;6.838;2022-07-03T05:56:22;4.72;;;1.77;;
27491;SDS011;14927;51.210;6.838;2022-07-03T05:59:06;7.60;;;1.83;;
27491;SDS011;14927;51.210;6.838;2022-07-03T06:01:51;2.95;;;1.67;;
27491;SDS011;14927;51.210;6.838;2022-07-03T06:04:36;5.38;;;2.20;;
27491;SDS011;14927;51.210;6.838;2022-07-03T06:07:20;2.33;;;1.45;;
27491;SDS011;14927;51.210;6.838;2022-07-03T06:10:05;7.43;;;1.55;;
27491;SDS011;14927;51.210;6.838;2022-07-03T06:12:51;4.07;;;1.92;;
27491;SDS011;14927;51.210;6.838;2022-07-03T06:15:36;4.30;;;2.13;;
27491;SDS011;14927;51.210;6.838;2022-07-03T06:18:20;3.28;;;1.83;;
27491;SDS011;14927;51.210;6.838;2022-07-03T06:21:05;3.00;;;1.55;;
27491;SDS011;14927;51.210;6.838;2022-07-03T06:23:50;6.00;;;2.30;;
27491;SDS011;14927;51.210;6.838;2022-07-03T06:26:34;2.35;;;1.33;;
27491;SDS011;14927;51.210;6.838;2022-07-03T06:29:19;4.70;;;1.85;;
27491;SDS011;14927;51.210;6.838;2022-07-03T06:32:04;5.85;;;1.63;;
27491;SDS011;14927;51.210;6.838;2022-07-03T06:34:49;2.05;;;1.08;;
27491;SDS011;14927;51.210;6.838;2022-07-03T06:37:33;2.03;;;1.15;;
27491;SDS011;14927;51.210;6.838;2022-07-03T06:40:17;3.75;;;1.35;;
27491;SDS011;14927;51.210;6.838;2022-07-03T06:43:02;6.07;;;1.50;;
27491;SDS011;14927;51.210;6.838;2022-07-03T06:45:47;4.35;;;1.92;;
27491;SDS011;14927;51.210;6.838;2022-07-03T06:48:31;3.33;;;1.85;;
27491;SDS011;14927;51.210;6.838;2022-07-03T06:51:17;2.70;;;1.30;;
27491;SDS011;14927;51.210;6.838;2022-07-03T06:54:01;2.20;;;1.25;;
27491;SDS011;14927;51.210;6.838;2022-07-03T06:56:46;1.85;;;1.02;;
27491;SDS011;14927;51.210;6.838;2022-07-03T06:59:31;7.55;;;1.50;;
27491;SDS011;14927;51.210;6.838;2022-07-03T07:02:15;2.70;;;1.38;;
27491;SDS011;14927;51.210;6.838;2022-07-03T07:05:00;3.67;;;1.63;;
27491;SDS011;14927;51.210;6.838;2022-07-03T07:07:44;1.83;;;1.30;;
27491;SDS011;14927;51.210;6.838;2022-07-03T07:10:29;2.75;;;1.42;;
27491;SDS011;14927;51.210;6.838;2022-07-03T07:13:14;1.85;;;1.20;;
27491;SDS011;14927;51.210;6.838;2022-07-03T07:15:59;2.67;;;1.40;;
27491;SDS011;14927;51.210;6.838;2022-07-03T07:18:44;7.95;;;1.98;;
27491;SDS011;14927;51.210;6.838;2022-07-03T07:21:28;3.47;;;1.02;;
27491;SDS011;14927;51.210;6.838;2022-07-03T07:24:13;3.58;;;1.50;;
27491;SDS011;14927;51.210;6.838;2022-07-03T07:26:58;5.25;;;1.30;;
27491;SDS011;14927;51.210;6.838;2022-07-03T07:29:45;5.15;;;2.05;;
27491;SDS011;14927;51.210;6.838;2022-07-03T07:32:29;2.72;;;1.75;;
27491;SDS011;14927;51.210;6.838;2022-07-03T07:35:14;2.28;;;1.30;;
27491;SDS011;14927;51.210;6.838;2022-07-03T07:37:58;6.95;;;1.75;;
27491;SDS011;14927;51.210;6.838;2022-07-03T07:40:43;4.82;;;1.90;;
27491;SDS011;14927;51.210;6.838;2022-07-03T07:43:28;8.27;;;2.60;;
27491;SDS011;14927;51.210;6.838;2022-07-03T07:46:13;3.13;;;1.70;;
27491;SDS011;14927;51.210;6.838;2022-07-03T07:48:57;2.55;;;1.60;;
27491;SDS011;14927;51.210;6.838;2022-07-03T07:51:46;5.95;;;2.28;;
27491;SDS011;14927;51.210;6.838;2022-07-03T07:54:31;5.25;;;2.33;;
27491;SDS011;14927;51.210;6.838;2022-07-03T07:57:15;2.90;;;1.48;;
27491;SDS011;14927;51.210;6.838;2022-07-03T08:00:03;4.82;;;1.40;;
27491;SDS011;14927;51.210;6.838;2022-07-03T08:02:55;2.88;;;1.58;;
27491;SDS011;14927;51.210;6.838;2022-07-03T08:08:48;6.57;;;1.75;;
27491;SDS011;14927;51.210;6.838;2022-07-03T08:11:32;4.07;;;1.90;;
27491;SDS011;14927;51.210;6.838;2022-07-03T08:14:17;4.03;;;1.65;;
27491;SDS011;14927;51.210;6.838;2022-07-03T08:17:02;6.47;;;2.00;;
27491;SDS011;14927;51.210;6.838;2022-07-03T08:19:46;3.20;;;1.52;;
27491;SDS011;14927;51.210;6.838;2022-07-03T08:22:31;4.22;;;1.58;;
27491;SDS011;14927;51.210;6.838;2022-07-03T08:25:21;2.97;;;1.20;;
27491;SDS011;14927;51.210;6.838;2022-07-03T08:28:05;3.47;;;1.05;;
27491;SDS011;14927;51.210;6.838;2022-07-03T08:30:50;5.00;;;1.33;;
27491;SDS011;14927;51.210;6.838;2022-07-03T08:33:34;3.05;;;1.30;;
27491;SDS011;14927;51.210;6.838;2022-07-03T08:36:19;2.75;;;1.10;;
27491;SDS011;14927;51.210;6.838;2022-07-03T08:39:03;3.80;;;1.45;;
27491;SDS011;14927;51.210;6.838;2022-07-03T08:41:48;3.47;;;1.30;;
27491;SDS011;14927;51.210;6.838;2022-07-03T08:44:35;3.70;;;1.50;;
27491;SDS011;14927;51.210;6.838;2022-07-03T08:47:21;8.35;;;1.80;;
27491;SDS011;14927;51.210;6.838;2022-07-03T08:50:06;2.72;;;1.40;;
27491;SDS011;14927;51.210;6.838;2022-07-03T08:52:52;2.78;;;1.45;;
27491;SDS011;14927;51.210;6.838;2022-07-03T08:55:37;4.85;;;1.50;;
27491;SDS011;14927;51.210;6.838;2022-07-03T08:58:23;2.60;;;1.30;;
27491;SDS011;14927;51.210;6.838;2022-07-03T09:01:07;1.90;;;1.10;;
27491;SDS011;14927;51.210;6.838;2022-07-03T09:03:52;3.72;;;1.08;;
27491;SDS011;14927;51.210;6.838;2022-07-03T09:09:31;3.78;;;0.75;;
27491;SDS011;14927;51.210;6.838;2022-07-03T09:12:17;3.73;;;1.20;;
27491;SDS011;14927;51.210;6.838;2022-07-03T09:15:03;1.90;;;0.80;;
27491;SDS011;14927;51.210;6.838;2022-07-03T09:20:51;7.55;;;1.02;;
27491;SDS011;14927;51.210;6.838;2022-07-03T09:23:47;1.67;;;1.00;;
27491;SDS011;14927;51.210;6.838;2022-07-03T09:26:31;2.55;;;1.05;;
27491;SDS011;14927;51.210;6.838;2022-07-03T09:29:16;5.10;;;1.27;;
27491;SDS011;14927;51.210;6.838;2022-07-03T09:32:01;3.50;;;1.20;;
27491;SDS011;14927;51.210;6.838;2022-07-03T09:34:46;2.47;;;1.10;;
27491;SDS011;14927;51.210;6.838;2022-07-03T09:37:31;2.40;;;1.70;;
27491;SDS011;14927;51.210;6.838;2022-07-03T09:40:17;2.15;;;1.10;;
27491;SDS011;14927;51.210;6.838;2022-07-03T09:43:03;1.65;;;1.00;;
27491;SDS011;14927;51.210;6.838;2022-07-03T09:45:56;1.55;;;0.80;;
27491;SDS011;14927;51.210;6.838;2022-07-03T09:48:45;4.15;;;1.48;;
27491;SDS011;14927;51.210;6.838;2022-07-03T09:51:29;2.15;;;1.00;;
27491;SDS011;14927;51.210;6.838;2022-07-03T09:54:24;1.73;;;0.70;;
27491;SDS011;14927;51.210;6.838;2022-07-03T09:57:17;4.57;;;0.90;;
27491;SDS011;14927;51.210;6.838;2022-07-03T10:03:10;3.30;;;1.17;;
27491;SDS011;14927;51.210;6.838;2022-07-03T10:05:56;1.42;;;0.93;;
27491;SDS011;14927;51.210;6.838;2022-07-03T10:08:47;4.22;;;1.30;;
27491;SDS011;14927;51.210;6.838;2022-07-03T10:11:32;4.25;;;1.10;;
27491;SDS011;14927;51.210;6.838;2022-07-03T10:14:17;2.60;;;0.70;;
27491;SDS011;14927;51.210;6.838;2022-07-03T10:17:05;3.58;;;0.93;;
27491;SDS011;14927;51.210;6.838;2022-07-03T10:19:50;3.28;;;0.95;;
27491;SDS011;14927;51.210;6.838;2022-07-03T10:22:35;9.70;;;1.25;;
27491;SDS011;14927;51.210;6.838;2022-07-03T10:25:23;3.35;;;1.20;;
27491;SDS011;14927;51.210;6.838;2022-07-03T10:28:08;1.52;;;0.88;;
27491;SDS011;14927;51.210;6.838;2022-07-03T10:30:56;2.25;;;1.08;;
27491;SDS011;14927;51.210;6.838;2022-07-03T10:33:42;1.45;;;0.77;;
27491;SDS011;14927;51.210;6.838;2022-07-03T10:36:26;4.32;;;1.00;;
27491;SDS011;14927;51.210;6.838;2022-07-03T10:39:32;4.07;;;0.90;;
27491;SDS011;14927;51.210;6.838;2022-07-03T10:42:39;1.90;;;0.70;;
27491;SDS011;14927;51.210;6.838;2022-07-03T10:52:03;7.30;;;1.35;;
27491;SDS011;14927;51.210;6.838;2022-07-03T10:54:49;2.60;;;1.33;;
27491;SDS011;14927;51.210;6.838;2022-07-03T10:57:36;5.32;;;1.23;;
27491;SDS011;14927;51.210;6.838;2022-07-03T11:00:22;3.50;;;1.17;;
27491;SDS011;14927;51.210;6.838;2022-07-03T11:03:07;3.83;;;1.40;;
27491;SDS011;14927;51.210;6.838;2022-07-03T11:05:52;5.57;;;1.20;;
27491;SDS011;14927;51.210;6.838;2022-07-03T11:09:00;1.83;;;0.90;;
27491;SDS011;14927;51.210;6.838;2022-07-03T11:11:48;5.68;;;1.00;;
27491;SDS011;14927;51.210;6.838;2022-07-03T11:14:38;2.85;;;0.88;;
27491;SDS011;14927;51.210;6.838;2022-07-03T11:17:23;3.08;;;1.00;;
27491;SDS011;14927;51.210;6.838;2022-07-03T11:20:07;4.80;;;1.10;;
27491;SDS011;14927;51.210;6.838;2022-07-03T11:28:58;2.38;;;1.20;;
27491;SDS011;14927;51.210;6.838;2022-07-03T11:31:43;2.22;;;0.80;;
27491;SDS011;14927;51.210;6.838;2022-07-03T11:34:28;5.15;;;1.17;;
27491;SDS011;14927;51.210;6.838;2022-07-03T11:40:32;2.10;;;0.80;;
27491;SDS011;14927;51.210;6.838;2022-07-03T11:43:23;5.70;;;1.23;;
27491;SDS011;14927;51.210;6.838;2022-07-03T11:46:08;6.18;;;1.10;;
27491;SDS011;14927;51.210;6.838;2022-07-03T11:51:58;2.78;;;0.82;;
27491;SDS011;14927;51.210;6.838;2022-07-03T11:54:49;4.97;;;1.50;;
27491;SDS011;14927;51.210;6.838;2022-07-03T11:57:35;1.45;;;0.60;;
27491;SDS011;14927;51.210;6.838;2022-07-03T12:00:20;9.45;;;1.15;;
27491;SDS011;14927;51.210;6.838;2022-07-03T12:03:05;4.00;;;1.20;;
27491;SDS011;14927;51.210;6.838;2022-07-03T12:05:57;2.55;;;0.80;;
27491;SDS011;14927;51.210;6.838;2022-07-03T12:08:46;1.15;;;0.60;;
27491;SDS011;14927;51.210;6.838;2022-07-03T12:11:31;1.85;;;0.63;;
27491;SDS011;14927;51.210;6.838;2022-07-03T12:14:15;3.08;;;0.88;;
27491;SDS011;14927;51.210;6.838;2022-07-03T12:17:00;1.67;;;0.80;;
27491;SDS011;14927;51.210;6.838;2022-07-03T12:19:52;5.55;;;0.70;;
27491;SDS011;14927;51.210;6.838;2022-07-03T12:22:38;1.80;;;0.75;;
27491;SDS011;14927;51.210;6.838;2022-07-03T12:25:25;3.38;;;0.98;;
27491;SDS011;14927;51.210;6.838;2022-07-03T12:28:13;3.85;;;1.00;;
27491;SDS011;14927;51.210;6.838;2022-07-03T12:30:58;1.90;;;0.90;;
27491;SDS011;14927;51.210;6.838;2022-07-03T12:33:42;1.33;;;0.50;;
27491;SDS011;14927;51.210;6.838;2022-07-03T12:36:27;0.90;;;0.55;;
27491;SDS011;14927;51.210;6.838;2022-07-03T12:39:13;3.65;;;0.63;;
27491;SDS011;14927;51.210;6.838;2022-07-03T12:41:59;1.58;;;0.80;;
27491;SDS011;14927;51.210;6.838;2022-07-03T12:44:57;5.40;;;0.85;;
27491;SDS011;14927;51.210;6.838;2022-07-03T12:47:43;1.48;;;0.60;;
27491;SDS011;14927;51.210;6.838;2022-07-03T12:53:30;0.82;;;0.40;;
27491;SDS011;14927;51.210;6.838;2022-07-03T12:59:04;1.55;;;0.50;;
27491;SDS011;14927;51.210;6.838;2022-07-03T13:02:04;2.95;;;0.68;;
27491;SDS011;14927;51.210;6.838;2022-07-03T13:04:50;3.40;;;0.50;;
27491;SDS011;14927;51.210;6.838;2022-07-03T13:07:35;4.93;;;0.85;;
27491;SDS011;14927;51.210;6.838;2022-07-03T13:10:24;1.65;;;0.88;;
27491;SDS011;14927;51.210;6.838;2022-07-03T13:13:10;4.50;;;0.60;;
27491;SDS011;14927;51.210;6.838;2022-07-03T13:15:54;4.70;;;0.80;;
27491;SDS011;14927;51.210;6.838;2022-07-03T13:18:55;1.63;;;0.50;;
27491;SDS011;14927;51.210;6.838;2022-07-03T13:21:44;0.63;;;0.40;;
27491;SDS011;14927;51.210;6.838;2022-07-03T13:24:29;1.80;;;0.60;;
27491;SDS011;14927;51.210;6.838;2022-07-03T13:27:14;2.22;;;0.60;;
27491;SDS011;14927;51.210;6.838;2022-07-03T13:29:59;5.10;;;0.50;;
27491;SDS011;14927;51.210;6.838;2022-07-03T13:32:44;1.55;;;0.50;;
27491;SDS011;14927;51.210;6.838;2022-07-03T13:35:29;2.13;;;0.40;;
27491;SDS011;14927;51.210;6.838;2022-07-03T13:38:14;1.65;;;0.50;;
27491;SDS011;14927;51.210;6.838;2022-07-03T13:40:59;0.55;;;0.50;;
27491;SDS011;14927;51.210;6.838;2022-07-03T13:43:43;7.07;;;1.38;;
27491;SDS011;14927;51.210;6.838;2022-07-03T13:46:29;1.65;;;0.45;;
27491;SDS011;14927;51.210;6.838;2022-07-03T13:49:14;5.45;;;0.40;;
27491;SDS011;14927;51.210;6.838;2022-07-03T13:51:59;2.72;;;0.55;;
27491;SDS011;14927;51.210;6.838;2022-07-03T13:54:43;2.08;;;0.50;;
27491;SDS011;14927;51.210;6.838;2022-07-03T14:00:18;3.63;;;0.55;;
27491;SDS011;14927;51.210;6.838;2022-07-03T14:05:53;1.45;;;0.50;;
27491;SDS011;14927;51.210;6.838;2022-07-03T14:08:38;1.10;;;0.47;;
27491;SDS011;14927;51.210;6.838;2022-07-03T14:11:23;0.43;;;0.38;;
27491;SDS011;14927;51.210;6.838;2022-07-03T14:14:08;1.75;;;0.57;;
27491;SDS011;14927;51.210;6.838;2022-07-03T14:16:52;4.75;;;0.60;;
27491;SDS011;14927;51.210;6.838;2022-07-03T14:19:37;0.80;;;0.50;;
27491;SDS011;14927;51.210;6.838;2022-07-03T14:22:22;1.20;;;0.40;;
27491;SDS011;14927;51.210;6.838;2022-07-03T14:25:07;1.35;;;0.30;;
27491;SDS011;14927;51.210;6.838;2022-07-03T14:27:53;0.60;;;0.40;;
27491;SDS011;14927;51.210;6.838;2022-07-03T14:30:57;0.85;;;0.57;;
27491;SDS011;14927;51.210;6.838;2022-07-03T14:34:00;1.05;;;0.60;;
27491;SDS011;14927;51.210;6.838;2022-07-03T14:36:44;3.03;;;0.70;;
27491;SDS011;14927;51.210;6.838;2022-07-03T14:39:29;1.92;;;0.75;;
27491;SDS011;14927;51.210;6.838;2022-07-03T14:42:15;0.75;;;0.43;;
27491;SDS011;14927;51.210;6.838;2022-07-03T14:47:50;3.15;;;0.82;;
27491;SDS011;14927;51.210;6.838;2022-07-03T14:53:25;3.92;;;0.60;;
27491;SDS011;14927;51.210;6.838;2022-07-03T14:56:11;2.88;;;0.50;;
27491;SDS011;14927;51.210;6.838;2022-07-03T14:59:03;2.55;;;0.80;;
27491;SDS011;14927;51.210;6.838;2022-07-03T15:01:52;0.82;;;0.40;;
27491;SDS011;14927;51.210;6.838;2022-07-03T15:10:56;2.05;;;0.40;;
27491;SDS011;14927;51.210;6.838;2022-07-03T15:13:54;3.20;;;1.35;;
27491;SDS011;14927;51.210;6.838;2022-07-03T15:16:39;2.38;;;0.60;;
27491;SDS011;14927;51.210;6.838;2022-07-03T15:19:27;7.78;;;3.92;;
27491;SDS011;14927;51.210;6.838;2022-07-03T15:22:14;1.35;;;0.50;;
27491;SDS011;14927;51.210;6.838;2022-07-03T15:25:00;1.27;;;0.40;;
27491;SDS011;14927;51.210;6.838;2022-07-03T15:27:46;5.78;;;0.68;;
27491;SDS011;14927;51.210;6.838;2022-07-03T15:30:44;0.60;;;0.45;;
27491;SDS011;14927;51.210;6.838;2022-07-03T15:33:33;0.68;;;0.40;;
27491;SDS011;14927;51.210;6.838;2022-07-03T15:36:18;4.00;;;0.63;;
27491;SDS011;14927;51.210;6.838;2022-07-03T15:39:06;2.88;;;0.80;;
27491;SDS011;14927;51.210;6.838;2022-07-03T15:52:02;3.80;;;0.80;;
27491;SDS011;14927;51.210;6.838;2022-07-03T15:54:57;1.63;;;0.65;;
27491;SDS011;14927;51.210;6.838;2022-07-03T15:57:50;1.92;;;0.50;;
27491;SDS011;14927;51.210;6.838;2022-07-03T16:00:43;3.97;;;0.57;;
27491;SDS011;14927;51.210;6.838;2022-07-03T16:04:02;0.98;;;0.40;;
27491;SDS011;14927;51.210;6.838;2022-07-03T16:06:52;3.78;;;0.77;;
27491;SDS011;14927;51.210;6.838;2022-07-03T16:09:37;1.15;;;0.40;;
27491;SDS011;14927;51.210;6.838;2022-07-03T16:12:25;0.63;;;0.55;;
27491;SDS011;14927;51.210;6.838;2022-07-03T16:15:11;2.65;;;0.40;;
27491;SDS011;14927;51.210;6.838;2022-07-03T16:17:56;1.27;;;0.50;;
27491;SDS011;14927;51.210;6.838;2022-07-03T16:20:41;2.00;;;0.45;;
27491;SDS011;14927;51.210;6.838;2022-07-03T16:23:27;5.32;;;0.60;;
27491;SDS011;14927;51.210;6.838;2022-07-03T16:26:13;1.00;;;0.70;;
27491;SDS011;14927;51.210;6.838;2022-07-03T16:29:00;1.00;;;0.35;;
27491;SDS011;14927;51.210;6.838;2022-07-03T16:31:45;0.98;;;0.57;;
27491;SDS011;14927;51.210;6.838;2022-07-03T16:35:21;1.23;;;0.50;;
27491;SDS011;14927;51.210;6.838;2022-07-03T16:38:11;2.45;;;0.50;;
27491;SDS011;14927;51.210;6.838;2022-07-03T16:41:06;1.67;;;0.55;;
27491;SDS011;14927;51.210;6.838;2022-07-03T16:43:55;1.00;;;0.60;;
27491;SDS011;14927;51.210;6.838;2022-07-03T16:46:42;1.05;;;0.35;;
27491;SDS011;14927;51.210;6.838;2022-07-03T16:49:33;1.35;;;0.40;;
27491;SDS011;14927;51.210;6.838;2022-07-03T16:52:20;0.70;;;0.50;;
27491;SDS011;14927;51.210;6.838;2022-07-03T16:55:07;1.13;;;0.40;;
27491;SDS011;14927;51.210;6.838;2022-07-03T16:57:54;4.68;;;0.98;;
27491;SDS011;14927;51.210;6.838;2022-07-03T17:00:40;2.25;;;0.60;;
27491;SDS011;14927;51.210;6.838;2022-07-03T17:03:26;1.95;;;0.50;;
27491;SDS011;14927;51.210;6.838;2022-07-03T17:06:11;2.13;;;0.60;;
27491;SDS011;14927;51.210;6.838;2022-07-03T17:08:56;3.40;;;0.60;;
27491;SDS011;14927;51.210;6.838;2022-07-03T17:11:42;1.55;;;0.68;;
27491;SDS011;14927;51.210;6.838;2022-07-03T17:14:27;1.55;;;0.60;;
27491;SDS011;14927;51.210;6.838;2022-07-03T17:17:13;1.52;;;0.70;;
27491;SDS011;14927;51.210;6.838;2022-07-03T17:19:59;3.92;;;0.60;;
27491;SDS011;14927;51.210;6.838;2022-07-03T17:22:50;3.55;;;0.30;;
27491;SDS011;14927;51.210;6.838;2022-07-03T17:28:48;0.95;;;0.47;;
27491;SDS011;14927;51.210;6.838;2022-07-03T17:31:41;1.10;;;0.43;;
27491;SDS011;14927;51.210;6.838;2022-07-03T17:34:29;1.30;;;0.40;;
27491;SDS011;14927;51.210;6.838;2022-07-03T17:37:14;0.50;;;0.30;;
27491;SDS011;14927;51.210;6.838;2022-07-03T17:39:59;0.88;;;0.38;;
27491;SDS011;14927;51.210;6.838;2022-07-03T17:42:45;0.65;;;0.45;;
27491;SDS011;14927;51.210;6.838;2022-07-03T17:45:30;0.73;;;0.50;;
27491;SDS011;14927;51.210;6.838;2022-07-03T17:48:15;0.75;;;0.50;;
27491;SDS011;14927;51.210;6.838;2022-07-03T17:51:00;3.83;;;0.50;;
27491;SDS011;14927;51.210;6.838;2022-07-03T17:53:45;1.70;;;0.63;;
27491;SDS011;14927;51.210;6.838;2022-07-03T17:56:31;0.93;;;0.60;;
27491;SDS011;14927;51.210;6.838;2022-07-03T17:59:17;1.00;;;0.40;;
27491;SDS011;14927;51.210;6.838;2022-07-03T18:02:04;1.13;;;0.32;;
27491;SDS011;14927;51.210;6.838;2022-07-03T18:04:49;1.75;;;0.77;;
27491;SDS011;14927;51.210;6.838;2022-07-03T18:07:45;1.35;;;0.50;;
27491;SDS011;14927;51.210;6.838;2022-07-03T18:17:25;1.83;;;0.45;;
27491;SDS011;14927;51.210;6.838;2022-07-03T18:20:15;2.72;;;0.50;;
27491;SDS011;14927;51.210;6.838;2022-07-03T18:23:04;2.38;;;0.52;;
27491;SDS011;14927;51.210;6.838;2022-07-03T18:25:48;3.42;;;0.60;;
27491;SDS011;14927;51.210;6.838;2022-07-03T18:28:34;1.45;;;0.80;;
27491;SDS011;14927;51.210;6.838;2022-07-03T18:31:21;1.15;;;0.50;;
27491;SDS011;14927;51.210;6.838;2022-07-03T18:34:06;2.97;;;0.90;;
27491;SDS011;14927;51.210;6.838;2022-07-03T18:36:51;1.83;;;0.73;;
27491;SDS011;14927;51.210;6.838;2022-07-03T18:39:37;2.25;;;0.98;;
27491;SDS011;14927;51.210;6.838;2022-07-03T18:42:23;2.58;;;0.65;;